Tiempo atmosférico en la estación meteorológica de Osuna, Sevilla (255 m.)



Fecha
DESCASC
Temp. máxima en grados centígrados (hora)
DESCASC
Temp. mínima en grados centígrados (hora)
DESCASC
Temp. media en grados centígrados
DESCASC
Racha de viento máxima en m/sg (hora)
DESCASC
Velocidad máxima media en intervalos de 10 minutos(hora)
DESCASC
Precipitaciones diarias en mm
DESCASC
Precipitaciones de 00:00 a 06:00 en mm
DESCASC
Precipitaciones de 06:00 a 12:00 en mm
DESCASC
Precipitaciones de 12:00 a 18:00 en mm
DESCASC
Precipitaciones de 18:00 a 24:00 en mm
DESCASC
16-06-2019 31.2 (19:00) 17.6 (07:10) 24.4 11.39 (19:50) 8.61 (19:50) 0 0 0 0 0
15-06-2019 28.9 (18:40) 14.6 (07:40) 21.8 6.94 (11:50) 4.44 (00:20) 0 0 0 0 0
14-06-2019 23.5 (16:50) 15.2 (07:40) 19.3 15.28 (12:20) 9.44 (12:20) 0 0 0 0 0
13-06-2019 29.2 (17:10) 17.2 (00:00) 23.2 11.94 (20:30) 8.89 (20:30) 0 0 0 0 0
12-06-2019 28.4 (17:00) 17.6 (00:00) 23 11.67 (09:00) 6.11 (09:40) 0 0 0 0 0
11-06-2019 28.6 (19:00) 15.6 (00:00) 22.1 12.22 (15:20) 8.33 (20:20) 0 0 0 0 0
10-06-2019 28.3 (18:10) 16.6 (00:00) 22.4 14.17 (20:50) 8.89 (20:10) 0 0 0 0 0
09-06-2019 28.1 (18:50) 17.8 (00:00) 22.9 12.5 (14:30) 8.61 (20:30) 0 0 0 0 0
08-06-2019 29 (14:50) 16.4 (00:00) 22.7 11.94 (15:50) 7.78 (16:40) 0 0 0 0 0
07-06-2019 26.4 (19:40) 15.7 (00:00) 21 7.22 (01:20) 3.89 (07:10) 0 0 0 0 0
06-06-2019 27.3 (17:20) 14.4 (00:00) 20.8 13.61 (18:20) 10 (18:40) 0 0 0 0 0
05-06-2019 25.5 (18:00) 14.3 (00:00) 19.9 11.94 (20:50) 6.67 (20:50) 0 0 0 0 0
04-06-2019 31.5 (16:10) 19.8 (00:00) 25.6 13.89 (18:00) 9.72 (19:50) 0 0 0 0 0
03-06-2019 35.6 (17:10) 19 (00:00) 27.3 10 (19:50) 6.67 (20:30) 0 0 0 0 0
02-06-2019 33 (18:20) 20.2 (00:00) 26.6 11.11 (01:10) 6.67 (01:10) 0 0 0 0 0
01-06-2019 29.5 (16:50) 18.3 (00:00) 23.9 14.44 (00:20) 8.33 (00:30) 0 0 0 0 0
31-05-2019 28.7 (16:00) 17.2 (00:00) 23 15.28 (21:20) 8.33 (01:20) 0 0 0 0 0
30-05-2019 26 (17:30) 17.8 (00:00) 21.9 16.39 (22:10) 8.89 (23:10) 0 0 0 0 0
29-05-2019 30.9 (18:50) 19.5 (00:00) 25.2 11.94 (12:10) 7.22 (23:10) 0 0 0 0 0
28-05-2019 34.9 (18:30) 21.6 (00:00) 28.3 9.72 (20:40) 7.22 (20:40) 0 0 0 0 0
27-05-2019 34.3 (18:10) 17.8 (00:00) 26 11.39 (20:30) 8.33 (20:30) 0 0 0 0 0
26-05-2019 31.4 (19:50) 16.9 (00:00) 24.1 8.33 (22:10) 4.72 (22:00) 0 0 0 0 0
25-05-2019 28.4 (20:10) 17 (00:00) 22.7 9.17 (15:40) 4.72 (04:30) 0 0 0 0 0
24-05-2019 30.1 (18:00) 19.3 (00:00) 24.7 11.11 (15:30) 7.78 (20:10) 0 0 0 0 0
23-05-2019 32.2 (17:30) 16.9 (00:00) 24.6 8.61 (16:30) 5.56 (19:00) 0 0 0 0 0
22-05-2019 30 (18:20) 16.6 (00:00) 23.3 7.78 (19:10) 4.17 (19:30) 0 0 0 0 0

Gráficas

Temp. máximas Temp. mínimas Temp. medias Precipitaciones Rachas de viento máximas Velocidades máximas media en intervalos de 10 minutos

Datos horarios

Fecha y hora oficial Temperatura (ºC) Velocidad del viento (km/h) Dirección del viento Racha (km/h) Dirección de racha Precipitación (mm) Presión (hPa) Tendencia (hPa) Humedad (%)
2019-06-20 23:00:00 21.2 12 Sudoeste 23 Oeste 0 -- -- 54
2019-06-20 22:00:00 22.5 19 Oeste 35 Oeste 0 -- -- 52
2019-06-20 21:00:00 24.8 24 Oeste 36 Oeste 0 -- -- 47
2019-06-20 20:00:00 26.5 20 Oeste 36 Sudoeste 0 -- -- 41
2019-06-20 19:00:00 26.9 26 Oeste 48 Oeste 0 -- -- 38
2019-06-20 18:00:00 27.3 27 Oeste 44 Oeste 0 -- -- 37
2019-06-20 17:00:00 27.5 29 Oeste 47 Oeste 0 -- -- 36
2019-06-20 16:00:00 27.2 22 Oeste 43 Oeste 0 -- -- 36
2019-06-20 15:00:00 26.4 23 Oeste 46 Oeste 0 -- -- 40
2019-06-20 14:00:00 25.9 18 Oeste 32 Oeste 0 -- -- 42
2019-06-20 13:00:00 25.1 18 Oeste 30 Oeste 0 -- -- 47
2019-06-20 12:00:00 23.7 18 Oeste 32 Oeste 0 -- -- 53
2019-06-20 11:00:00 22.2 12 Oeste 22 Oeste 0 -- -- 59
2019-06-20 10:00:00 20.7 13 Oeste 21 Oeste 0 -- -- 64
2019-06-20 09:00:00 19.6 9 Oeste 15 Oeste 0 -- -- 68
2019-06-20 08:00:00 17.6 2 Noroeste 5 Oeste 0 -- -- 75
2019-06-20 07:00:00 17.7 0 Calma 6 Sudoeste 0 -- -- 74
2019-06-20 06:00:00 18.1 3 Sudoeste 9 Sur 0 -- -- 73
2019-06-20 05:00:00 18.3 4 Sudoeste 10 Oeste 0 -- -- 73
2019-06-20 04:00:00 18.5 5 Oeste 19 Sudoeste 0 -- -- 72
2019-06-20 03:00:00 18.7 9 Sudoeste 21 Sudoeste 0 -- -- 71
2019-06-20 02:00:00 18.9 11 Sudoeste 20 Sudoeste 0 -- -- 69
2019-06-20 01:00:00 19.1 12 Sudoeste 24 Oeste 0 -- -- 69
2019-06-20 00:00:00 19.7 17 Oeste 26 Oeste 0 -- -- 68
2019-06-19 23:00:00 20.6 22 Oeste 37 Oeste 0 -- -- 66
2019-06-19 22:00:00 22.6 24 Oeste 36 Oeste 0 -- -- 58
2019-06-19 21:00:00 26.2 26 Oeste 35 Oeste 0 -- -- 47
2019-06-19 20:00:00 28.5 22 Oeste 34 Oeste 0 -- -- 41
2019-06-19 19:00:00 29.2 19 Oeste 31 Oeste 0 -- -- 36
2019-06-19 18:00:00 29.4 13 Oeste 32 Oeste 0 -- -- 34
2019-06-19 17:00:00 28.9 16 Oeste 31 Oeste 0 -- -- 36
2019-06-19 16:00:00 28.3 12 Oeste 29 Sudoeste 0 -- -- 38
2019-06-19 15:00:00 26.7 14 Oeste -- -- -- -- -- 43
2019-06-19 14:00:00 24.7 9 Noroeste 21 Noroeste 0 -- -- 49
2019-06-19 13:00:00 23.3 8 Noroeste 19 Noroeste 0 -- -- 53
2019-06-19 12:00:00 21.8 8 Norte 19 Noroeste 0 -- -- 60
2019-06-19 11:00:00 20.5 5 Oeste 16 Oeste 0 -- -- 65
2019-06-19 10:00:00 19.1 9 Oeste 14 Oeste 0 -- -- 72
2019-06-19 09:00:00 18.6 6 Oeste 12 Oeste 0 -- -- 76
2019-06-19 08:00:00 17.7 5 Sudoeste 7 Sudoeste 0 -- -- 78
2019-06-19 07:00:00 17.9 5 Sudoeste 9 Oeste 0 -- -- 77
2019-06-19 06:00:00 18.1 7 Oeste 18 Oeste 0 -- -- 77
2019-06-19 05:00:00 18.1 11 Oeste 18 Sudoeste 0 -- -- 78
2019-06-19 04:00:00 17.7 12 Sudoeste 22 Oeste 0 -- -- 81
2019-06-19 03:00:00 17.4 8 Oeste 12 Sudoeste 0 -- -- 79
2019-06-19 02:00:00 17.8 8 Oeste 13 Oeste 0 -- -- 77
2019-06-19 01:00:00 18.6 8 Sudoeste 14 Sudoeste 0 -- -- 74
2019-06-19 00:00:00 19.4 10 Oeste 22 Oeste 0 -- -- 71
2019-06-18 23:00:00 20.6 11 Oeste 25 Oeste 0 -- -- 67
2019-06-18 22:00:00 21.6 23 Oeste 37 Oeste 0 -- -- 62
2019-06-18 21:00:00 23.7 29 Oeste 39 Oeste 0 -- -- 55
2019-06-18 20:00:00 25.7 29 Oeste 41 Oeste 0 -- -- 47
2019-06-18 19:00:00 27 28 Oeste 42 Oeste 0 -- -- 42
2019-06-18 18:00:00 27.7 27 Oeste 45 Oeste 0 -- -- 38
2019-06-18 17:00:00 28.5 28 Oeste 41 Oeste 0 -- -- 30
2019-06-18 16:00:00 27.9 26 Oeste 44 Oeste 0 -- -- 30
2019-06-18 15:00:00 26.7 21 Oeste 42 Oeste 0 -- -- 33
2019-06-18 14:00:00 25.1 18 Oeste 31 Oeste 0 -- -- 44
2019-06-18 13:00:00 23.1 14 Oeste 29 Oeste 0 -- -- 51
2019-06-18 12:00:00 21.4 13 Oeste 29 Oeste 0 -- -- 56
2019-06-18 11:00:00 19.6 18 Oeste 31 Oeste 0 -- -- 63
2019-06-18 10:00:00 17.9 14 Oeste 20 Oeste 0 -- -- 68
2019-06-18 09:00:00 16.3 9 Oeste 13 Oeste 0 -- -- 73
2019-06-18 08:00:00 15.4 2 Oeste 9 Sudoeste 0 -- -- 71
2019-06-18 07:00:00 14.7 0 Calma 7 Noroeste 0 -- -- 78
2019-06-18 06:00:00 15.1 3 Noroeste 15 Norte 0 -- -- 70
2019-06-18 05:00:00 18.3 3 Sudoeste 5 Sudoeste 0 -- -- 62
2019-06-18 04:00:00 18.5 3 Sudoeste 6 Sudoeste 0 -- -- 61
2019-06-18 03:00:00 18.3 3 Sudoeste 6 Oeste 0 -- -- 61
2019-06-18 02:00:00 18.5 4 Oeste 8 Noroeste 0 -- -- 59
2019-06-18 01:00:00 19.9 3 Oeste 18 Oeste 0 -- -- 57
2019-06-18 00:00:00 21 12 Oeste 19 Oeste 0 -- -- 55
2019-06-17 23:00:00 22.5 10 Oeste 21 Oeste 0 -- -- 52
2019-06-17 22:00:00 24.2 16 Oeste 30 Oeste 0 -- -- 48
2019-06-17 21:00:00 26.7 21 Oeste 34 Oeste 0 -- -- 44
2019-06-17 20:00:00 28.9 24 Oeste 39 Oeste 0 -- -- 39
2019-06-17 19:00:00 30.9 26 Oeste 37 Oeste 0 -- -- 31
2019-06-17 18:00:00 32.2 15 Oeste 28 Oeste 0 -- -- 25
2019-06-17 17:00:00 31.6 15 Noroeste 30 Oeste 0 -- -- 24
2019-06-17 16:00:00 31.2 15 Oeste 24 Oeste 0 -- -- 24
2019-06-17 15:00:00 30 5 Sudoeste 20 Oeste 0 -- -- 25
2019-06-17 14:00:00 28.4 8 Oeste 18 Oeste 0 -- -- 28
2019-06-17 13:00:00 27.1 5 Nordeste 15 Noroeste 0 -- -- 30
2019-06-17 12:00:00 25.2 5 Norte 16 Sur 0 -- -- 35
2019-06-17 11:00:00 23.4 4 Nordeste 11 Nordeste 0 -- -- 38
2019-06-17 10:00:00 21.8 4 Nordeste 10 Nordeste 0 -- -- 42
2019-06-17 09:00:00 19.8 7 Sudeste 12 Este 0 -- -- 47
2019-06-17 08:00:00 18.3 4 Sudeste 9 Sudeste 0 -- -- 51
2019-06-17 07:00:00 17.6 4 Sudeste 6 Sur 0 -- -- 56
2019-06-17 06:00:00 17.9 5 Sudeste 7 Sudeste 0 -- -- 56
2019-06-17 05:00:00 18.1 3 Sur 6 Sudoeste 0 -- -- 55
2019-06-17 04:00:00 18.1 0 Calma 4 Noroeste 0 -- -- 58
2019-06-17 03:00:00 18.7 0 Calma 5 Oeste 0 -- -- 55
2019-06-17 02:00:00 19.9 3 Oeste 6 Sudoeste 0 -- -- 49
2019-06-17 01:00:00 20.7 4 Sudoeste 9 Sudoeste 0 -- -- 46
2019-06-17 00:00:00 21.5 5 Sudoeste 12 Sudoeste 0 -- -- 43
2019-06-16 23:00:00 22.2 9 Sudoeste 23 Oeste 0 -- -- 41
2019-06-16 22:00:00 24 16 Oeste 25 Oeste 0 -- -- 39
2019-06-16 21:00:00 26.7 20 Oeste 35 Oeste 0 -- -- 36
2019-06-16 20:00:00 28.7 28 Oeste 41 Oeste 0 -- -- 36
2019-06-16 19:00:00 31.2 15 Oeste 25 Oeste 0 -- -- 26
2019-06-16 18:00:00 30.6 9 Noroeste 31 Oeste 0 -- -- 27
2019-06-16 17:00:00 29.9 7 Oeste 30 Oeste 0 -- -- 26
2019-06-16 16:00:00 29.3 10 Noroeste 25 Noroeste 0 -- -- 27
2019-06-16 15:00:00 28.6 14 Noroeste 23 Norte 0 -- -- 28
2019-06-16 14:00:00 27.6 6 Oeste 13 Oeste 0 -- -- 30
2019-06-16 13:00:00 26.4 7 Noroeste 14 Oeste 0 -- -- 33
2019-06-16 12:00:00 25.3 11 Noroeste 14 Noroeste 0 -- -- 35
2019-06-16 11:00:00 24.2 8 Noroeste 14 Noroeste 0 -- -- 37
2019-06-16 10:00:00 21.7 2 Oeste 13 Sudeste 0 -- -- 41
2019-06-16 09:00:00 21.1 8 Este 17 Este 0 -- -- 37
2019-06-16 08:00:00 18.2 0 Calma 5 Sudeste 0 -- -- 49
2019-06-16 07:00:00 18 2 Norte 4 Nordeste 0 -- -- 49
2019-06-16 06:00:00 18.7 3 Este 6 Sudeste 0 -- -- 47
2019-06-16 05:00:00 19.8 5 Este 13 Sudeste 0 -- -- 46
2019-06-16 04:00:00 20.1 8 Este 14 Este 0 -- -- 45
2019-06-16 03:00:00 20.2 3 Este 8 Sudeste 0 -- -- 43
2019-06-16 02:00:00 20.2 4 Sudeste 8 Sudeste 0 -- -- 47
2019-06-16 01:00:00 20.2 3 Sudoeste 9 Oeste 0 -- -- 47
2019-06-16 00:00:00 21.4 5 Oeste 9 Oeste 0 -- -- 45
2019-06-15 23:00:00 22.6 5 Sudoeste 21 Oeste 0 -- -- 43
2019-06-15 22:00:00 25.5 3 Oeste 13 Noroeste 0 -- -- 25
2019-06-15 21:00:00 27.4 10 Noroeste 19 Oeste 0 -- -- 23
2019-06-15 20:00:00 28.6 9 Noroeste 21 Noroeste 0 -- -- 22
2019-06-15 19:00:00 28.7 12 Oeste 23 Oeste 0 -- -- 23
2019-06-15 18:00:00 28.4 7 Oeste 18 Nordeste 0 -- -- 24
2019-06-15 17:00:00 27.1 5 Norte 20 Noroeste 0 -- -- 27
2019-06-15 16:00:00 26 7 Norte 17 Noroeste 0 -- -- 29
2019-06-15 15:00:00 24.9 5 Este 20 Noroeste 0 -- -- 32
2019-06-15 14:00:00 23.6 5 Norte 21 Norte 0 -- -- 34
2019-06-15 13:00:00 22.3 6 Noroeste 20 Este 0 -- -- 38
2019-06-15 12:00:00 21.1 9 Norte 25 Nordeste 0 -- -- 41
2019-06-15 11:00:00 19.9 7 Nordeste 18 Norte 0 -- -- 46
2019-06-15 10:00:00 18.4 6 Nordeste 13 Norte 0 -- -- 50
2019-06-15 09:00:00 17.2 3 Este 9 Este 0 -- -- 57
2019-06-15 08:00:00 15 0 Calma 3 Sudoeste 0 -- -- 64
2019-06-15 07:00:00 14.7 0 Calma 4 Sudeste 0 -- -- 63
2019-06-15 06:00:00 15 3 Sur 4 Sudeste 0 -- -- 62
2019-06-15 05:00:00 15.2 2 Sur 4 Sur 0 -- -- 62
2019-06-15 04:00:00 15 2 Sur 13 Sudoeste 0 -- -- 61
2019-06-15 03:00:00 15.3 6 Sur 14 Sur 0 -- -- 59
2019-06-15 02:00:00 15.4 6 Sudoeste 18 Sudoeste 0 -- -- 59
2019-06-15 01:00:00 15.7 10 Sudoeste 24 Sudoeste 0 -- -- 56
2019-06-15 00:00:00 16.4 14 Oeste 35 Oeste 0 -- -- 55
2019-06-14 23:00:00 17.5 19 Oeste 34 Sudoeste 0 -- -- 52
2019-06-14 22:00:00 19.2 21 Oeste 33 Oeste 0 -- -- 47
2019-06-14 21:00:00 20.8 20 Oeste 32 Oeste 0 -- -- 43
2019-06-14 20:00:00 22.6 21 Oeste 35 Oeste 0 -- -- 38
2019-06-14 19:00:00 23.3 24 Oeste 41 Oeste 0 -- -- 35
2019-06-14 18:00:00 23.1 25 Oeste 42 Oeste 0 -- -- 36
2019-06-14 17:00:00 23.3 27 Oeste 50 Oeste 0 -- -- 32
2019-06-14 16:00:00 22.9 26 Oeste 47 Oeste 0 -- -- 33
2019-06-14 15:00:00 21.8 24 Oeste 47 Oeste 0 -- -- 38
2019-06-14 14:00:00 21.1 26 Oeste 48 Oeste 0 -- -- 42
2019-06-14 13:00:00 20.5 28 Oeste 55 Oeste 0 -- -- 43
2019-06-14 12:00:00 20.3 27 Oeste 44 Sudoeste 0 -- -- 45
2019-06-14 11:00:00 19.3 25 Oeste 44 Oeste 0 -- -- 48
2019-06-14 10:00:00 18.3 21 Sudoeste 42 Oeste 0 -- -- 53
2019-06-14 09:00:00 17.3 16 Sudoeste 36 Sudoeste 0 -- -- 58
2019-06-14 08:00:00 15.5 12 Oeste 22 Oeste 0 -- -- 71
2019-06-14 07:00:00 15.5 4 Noroeste 10 Noroeste 0 -- -- 71
2019-06-14 06:00:00 17.1 3 Oeste 10 Oeste 0 -- -- 62
2019-06-14 05:00:00 18 6 Sudoeste 14 Oeste 0 -- -- 62
2019-06-14 04:00:00 18.7 9 Oeste 18 Sudoeste 0 -- -- 61
2019-06-14 03:00:00 19.4 11 Sudoeste 23 Sudoeste 0 -- -- 58
2019-06-14 02:00:00 20.3 12 Sudoeste 26 Sudoeste 0 -- -- 53
2019-06-14 01:00:00 20.7 17 Sudoeste 28 Sudoeste 0 -- -- 47
2019-06-14 00:00:00 21.1 18 Sudoeste 33 Sudoeste 0 -- -- 48
2019-06-13 23:00:00 21.4 17 Sudoeste 32 Oeste 0 -- -- 50
2019-06-13 22:00:00 22.9 23 Oeste 37 Oeste 0 -- -- 45
2019-06-13 21:00:00 24.6 30 Oeste 43 Oeste 0 -- -- 42
2019-06-13 20:00:00 27.6 26 Oeste 36 Oeste 0 -- -- 36
2019-06-13 19:00:00 28.9 19 Oeste 30 Oeste 0 -- -- 36
2019-06-13 18:00:00 28.1 10 Noroeste 32 Oeste 0 -- -- 38
2019-06-13 17:00:00 28.9 13 Oeste 31 Sur 0 -- -- 37
2019-06-13 16:00:00 27.9 7 Sudoeste 23 Oeste 0 -- -- 39
2019-06-13 15:00:00 27.6 15 Oeste 31 Oeste 0 -- -- 40
2019-06-13 14:00:00 25.9 5 Nordeste 16 Sudeste 0 -- -- 43
2019-06-13 13:00:00 24 5 Norte 16 Oeste 0 -- -- 48
2019-06-13 12:00:00 23.9 9 Oeste 17 Oeste 0 -- -- 48
2019-06-13 11:00:00 21.9 8 Noroeste 16 Oeste 0 -- -- 54
2019-06-13 10:00:00 20.7 5 Oeste 12 Noroeste 0 -- -- 59
2019-06-13 09:00:00 18.7 3 Oeste 11 Oeste 0 -- -- 67
2019-06-13 08:00:00 17.9 3 Norte 7 Sudeste 0 -- -- 75
2019-06-13 07:00:00 17.3 3 Oeste 5 Oeste 0 -- -- 73
2019-06-13 06:00:00 17.4 2 Nordeste 6 Este 0 -- -- 77
2019-06-13 05:00:00 17.6 3 Nordeste 6 Nordeste 0 -- -- 79
2019-06-13 04:00:00 17.7 4 Nordeste 9 Noroeste 0 -- -- 67
2019-06-13 03:00:00 18.6 4 Sudoeste 13 Sudeste 0 -- -- 61
2019-06-13 02:00:00 19.2 6 Sur 13 Sur 0 -- -- 60
2019-06-13 01:00:00 20.2 4 Sudeste 10 Sudeste 0 -- -- 56
2019-06-13 00:00:00 21.6 4 Sudeste 12 Sudoeste 0 -- -- 51
2019-06-12 23:00:00 23 7 Sudoeste 18 Oeste 0 -- -- 54
2019-06-12 22:00:00 24.3 10 Sudoeste 25 Sur 0 -- -- 49
2019-06-12 21:00:00 25.4 15 Sudeste 30 Sudeste 0 -- -- 40
2019-06-12 20:00:00 26.5 16 Sudeste 31 Sudeste 0 -- -- 37
2019-06-12 19:00:00 27.1 17 Sudeste 31 Sudeste 0 -- -- 34
2019-06-12 18:00:00 27.8 11 Sudeste 30 Este 0 -- -- 32
2019-06-12 17:00:00 28.4 12 Sur 26 Sur 0 -- -- 30
2019-06-12 16:00:00 27.7 9 Sudoeste 25 Este 0 -- -- 31
2019-06-12 15:00:00 26.8 13 Sudeste 27 Este 0 -- -- 29
2019-06-12 14:00:00 25.9 13 Sudeste 27 Sudeste 0 -- -- 36
2019-06-12 13:00:00 24.9 14 Sudeste 30 Sur 0 -- -- 40
2019-06-12 12:00:00 24 16 Sur 34 Sudeste 0 -- -- 42
2019-06-12 11:00:00 22.9 14 Sur 33 Sudeste 0 -- -- 48
2019-06-12 10:00:00 21.4 18 Sudeste 42 Sudeste 0 -- -- 54
2019-06-12 09:00:00 19.9 20 Sudeste 42 Sudeste 0 -- -- 61
2019-06-12 08:00:00 18.8 14 Sudeste 29 Sudeste 0 -- -- 65
2019-06-12 07:00:00 18.1 8 Sudeste 21 Sudeste 0 -- -- 68
2019-06-12 06:00:00 17.7 13 Sudeste 20 Sudeste 0 -- -- 64
2019-06-12 05:00:00 17.8 9 Sudeste 20 Sudeste 0 -- -- 53
2019-06-12 04:00:00 18.2 0 Calma 4 Sudeste 0 -- -- 55
2019-06-12 03:00:00 18.6 0 Calma 11 Nordeste 0 -- -- 54
2019-06-12 02:00:00 19.3 2 Sur 10 Sudoeste 0 -- -- 52
2019-06-12 01:00:00 19.4 6 Sur 16 Sudoeste 0 -- -- 55
2019-06-12 00:00:00 20 8 Sudoeste 14 Sudoeste 0 -- -- 55
2019-06-11 23:00:00 21 8 Oeste 22 Oeste 0 -- -- 51
2019-06-11 22:00:00 22.4 15 Oeste 36 Oeste 0 -- -- 46
2019-06-11 21:00:00 25.5 24 Oeste 40 Oeste 0 -- -- 39
2019-06-11 20:00:00 27.8 22 Oeste 34 Oeste 0 -- -- 30
2019-06-11 19:00:00 28.6 20 Oeste 43 Oeste 0 -- -- 25
2019-06-11 18:00:00 28.2 22 Oeste 36 Oeste 0 -- -- 28
2019-06-11 17:00:00 27.6 15 Oeste 40 Oeste 0 -- -- 29
2019-06-11 16:00:00 26.9 18 Noroeste 44 Oeste 0 -- -- 29
2019-06-11 15:00:00 25.9 18 Oeste 38 Oeste 0 -- -- 31
2019-06-11 14:00:00 24.6 16 Oeste 32 Noroeste 0 -- -- 32
2019-06-11 13:00:00 23.1 17 Noroeste 28 Oeste 0 -- -- 35
2019-06-11 12:00:00 22 16 Oeste 25 Oeste 0 -- -- 37
2019-06-11 11:00:00 19.9 13 Oeste 20 Oeste 0 -- -- 48
2019-06-11 10:00:00 18.1 10 Oeste 19 Oeste 0 -- -- 59
2019-06-11 09:00:00 16.5 7 Noroeste 10 Oeste 0 -- -- 64
2019-06-11 08:00:00 15.9 3 Norte 9 Norte 0 -- -- 61
2019-06-11 07:00:00 16.9 3 Sudoeste 9 Sur 0 -- -- 58
2019-06-11 06:00:00 16.7 6 Sudeste 11 Sudeste 0 -- -- 59
2019-06-11 05:00:00 16.4 7 Sudeste 12 Sudeste 0 -- -- 60
2019-06-11 04:00:00 16.5 3 Sudeste 8 Nordeste 0 -- -- 61
2019-06-11 03:00:00 16.1 6 Nordeste 17 Sur 0 -- -- 62
2019-06-11 02:00:00 17.5 10 Sur 16 Sur 0 -- -- 55
2019-06-11 01:00:00 17.4 9 Sudoeste 19 Oeste 0 -- -- 62
2019-06-11 00:00:00 18.2 15 Oeste 25 Oeste 0 -- -- 58
2019-06-10 23:00:00 19.6 21 Oeste 34 Sudoeste 0 -- -- 51
2019-06-10 22:00:00 21.5 23 Oeste 35 Oeste 0 -- -- 44
2019-06-10 21:00:00 23.7 29 Oeste 51 Oeste 0 -- -- 38
2019-06-10 20:00:00 26 30 Oeste 49 Oeste 0 -- -- 33
2019-06-10 19:00:00 27.6 27 Oeste 41 Oeste 0 -- -- 29
2019-06-10 18:00:00 28.2 17 Oeste 36 Oeste 0 -- -- 25
2019-06-10 17:00:00 27.4 17 Oeste 36 Oeste 0 -- -- 24
2019-06-10 16:00:00 26.8 18 Oeste 36 Oeste 0 -- -- 24
2019-06-10 15:00:00 25.9 18 Oeste 34 Oeste 0 -- -- 28
2019-06-10 14:00:00 24.6 14 Noroeste 28 Oeste 0 -- -- 31
2019-06-10 13:00:00 23.4 11 Noroeste 25 Oeste 0 -- -- 36
2019-06-10 12:00:00 22.3 8 Noroeste 18 Noroeste 0 -- -- 39
2019-06-10 11:00:00 21 6 Noroeste 18 Oeste 0 -- -- 44
2019-06-10 10:00:00 19.4 7 Oeste 17 Oeste 0 -- -- 51
2019-06-10 09:00:00 17.8 14 Noroeste 20 Noroeste 0 -- -- 60
2019-06-10 08:00:00 16.8 5 Sudoeste 9 Sudoeste 0 -- -- 60
2019-06-10 07:00:00 16.7 3 Sur 6 Sur 0 -- -- 61
2019-06-10 06:00:00 16.9 3 Sur 7 Sur 0 -- -- 61
2019-06-10 05:00:00 17.4 2 Sudoeste 7 Sudoeste 0 -- -- 59
2019-06-10 04:00:00 18.1 3 Sudoeste 9 Sudoeste 0 -- -- 56
2019-06-10 03:00:00 18.4 5 Sudoeste 14 Sudoeste 0 -- -- 55
2019-06-10 02:00:00 19.1 6 Sudoeste 20 Sudoeste 0 -- -- 50
2019-06-10 01:00:00 19.4 4 Oeste 24 Oeste 0 -- -- 47
2019-06-10 00:00:00 19.6 13 Sudoeste 28 Sudoeste 0 -- -- 43
2019-06-09 23:00:00 20.2 20 Sudoeste 36 Oeste 0 -- -- 40
2019-06-09 22:00:00 22.1 17 Sudoeste 36 Oeste 0 -- -- 33
2019-06-09 21:00:00 24.4 23 Sudoeste 44 Oeste 0 -- -- 29
2019-06-09 20:00:00 27 27 Oeste 39 Sudoeste 0 -- -- 21
2019-06-09 19:00:00 27.9 23 Oeste 42 Oeste 0 -- -- 22
2019-06-09 18:00:00 27.8 23 Oeste 41 Oeste 0 -- -- 23
2019-06-09 17:00:00 27.7 18 Oeste 41 Oeste 0 -- -- 25
2019-06-09 16:00:00 27.2 23 Oeste 40 Oeste 0 -- -- 29
2019-06-09 15:00:00 26.8 24 Oeste 45 Oeste 0 -- -- 31
2019-06-09 14:00:00 25.9 19 Oeste 39 Oeste 0 -- -- 39
2019-06-09 13:00:00 24.8 14 Oeste 33 Oeste 0 -- -- 45
2019-06-09 12:00:00 23.8 12 Noroeste 24 Oeste 0 -- -- 50
2019-06-09 11:00:00 22.3 10 Oeste 17 Oeste 0 -- -- 57
2019-06-09 10:00:00 21.2 4 Sur 12 Oeste 0 -- -- 61
2019-06-09 09:00:00 19.6 3 Oeste 6 Sur 0 -- -- 66
2019-06-09 08:00:00 17.9 0 Calma 4 Noroeste 0 -- -- 73
2019-06-09 07:00:00 18 2 Noroeste 4 Oeste 0 -- -- 71
2019-06-09 06:00:00 18.3 2 Sur 6 Sur 0 -- -- 70
2019-06-09 05:00:00 18.3 3 Sur 7 Sur 0 -- -- 67
2019-06-09 04:00:00 18.4 3 Oeste 10 Noroeste 0 -- -- 65
2019-06-09 03:00:00 18.9 5 Noroeste 13 Noroeste 0 -- -- 56
2019-06-09 02:00:00 20.1 5 Oeste 10 Sudoeste 0 -- -- 45
2019-06-09 01:00:00 21 6 Oeste 20 Oeste 0 -- -- 43
2019-06-09 00:00:00 21.9 8 Sudoeste 22 Oeste 0 -- -- 40
2019-06-08 23:00:00 23 15 Oeste 27 Oeste 0 -- -- 37
2019-06-08 22:00:00 24.5 14 Oeste 23 Sudoeste 0 -- -- 38
2019-06-08 21:00:00 26.1 15 Oeste 29 Sur 0 -- -- 37
2019-06-08 20:00:00 26.7 14 Sudeste 35 Sudeste 0 -- -- 34
2019-06-08 19:00:00 26.9 18 Sudeste 40 Sur 0 -- -- 36
2019-06-08 18:00:00 27.6 22 Sudeste 40 Sudeste 0 -- -- 32
2019-06-08 17:00:00 27.7 23 Sudeste 43 Sudeste 0 -- -- 29
2019-06-08 16:00:00 28.5 22 Sudeste 43 Este 0 -- -- 27
2019-06-08 15:00:00 28.7 18 Sudeste 31 Sur 0 -- -- 31
2019-06-08 14:00:00 27.5 17 Sudeste 33 Sudeste 0 -- -- 32
2019-06-08 13:00:00 28.1 13 Sudeste 27 Sur 0 -- -- 29
2019-06-08 12:00:00 27.5 6 Sudoeste 19 Sudeste 0 -- -- 26
2019-06-08 11:00:00 25.4 10 Sur 22 Sudeste 0 -- -- 32
2019-06-08 10:00:00 23.4 3 Oeste 17 Este 0 -- -- 34
2019-06-08 09:00:00 20.3 4 Oeste 10 Este 0 -- -- 33
2019-06-08 08:00:00 18.2 7 Este 15 Sudeste 0 -- -- 30
2019-06-08 07:00:00 16.7 3 Sur 6 Sur 0 -- -- 35
2019-06-08 06:00:00 16.9 2 Este 4 Sudeste 0 -- -- 33
2019-06-08 05:00:00 17.4 3 Sudeste 5 Sudeste 0 -- -- 32
2019-06-08 04:00:00 18 4 Sudeste 5 Sudeste 0 -- -- 33
2019-06-08 03:00:00 18.4 3 Sur 5 Sur 0 -- -- 40
2019-06-08 02:00:00 18.9 3 Sur 6 Sudoeste 0 -- -- 36
2019-06-08 01:00:00 20 3 Sudoeste 8 Oeste 0 -- -- 29
2019-06-08 00:00:00 21.3 4 Sur 13 Oeste 0 -- -- 27
2019-06-07 23:00:00 22.7 0 Calma 3 Oeste 0 -- -- 25
2019-06-07 22:00:00 23.7 0 Calma 12 Norte 0 -- -- 23
2019-06-07 21:00:00 25.3 6 Norte 11 Norte 0 -- -- 21
2019-06-07 20:00:00 25.9 8 Norte 17 Noroeste 0 -- -- 19
2019-06-07 19:00:00 25.8 6 Norte 20 Noroeste 0 -- -- 19
2019-06-07 18:00:00 25.7 7 Norte 24 Norte 0 -- -- 21
2019-06-07 17:00:00 25.6 8 Oeste 24 Noroeste 0 -- -- 24
2019-06-07 16:00:00 24.6 13 Noroeste 22 Noroeste 0 -- -- 28
2019-06-07 15:00:00 23 4 Sudeste 20 Noroeste 0 -- -- 33
2019-06-07 14:00:00 21.3 8 Noroeste 23 Noroeste 0 -- -- 41
2019-06-07 13:00:00 20.2 4 Sudeste 21 Noroeste 0 -- -- 48
2019-06-07 12:00:00 18.7 7 Noroeste 17 Noroeste 0 -- -- 55
2019-06-07 11:00:00 17.6 8 Norte 19 Norte 0 -- -- 60
2019-06-07 10:00:00 15.8 10 Nordeste 22 Norte 0 -- -- 70
2019-06-07 09:00:00 16.8 10 Noroeste 16 Noroeste 0 -- -- 75
2019-06-07 08:00:00 16.6 12 Oeste 21 Oeste 0 -- -- 76
2019-06-07 07:00:00 16.7 13 Oeste 26 Oeste 0 -- -- 76
2019-06-07 06:00:00 16.5 12 Oeste 20 Sudoeste 0 -- -- 74
2019-06-07 05:00:00 15.8 10 Sudoeste 23 Sudoeste 0 -- -- 74
2019-06-07 04:00:00 15.7 12 Sudoeste 21 Sudoeste 0 -- -- 73
2019-06-07 03:00:00 16 11 Sudoeste 22 Sudoeste 0 -- -- 70
2019-06-07 02:00:00 16.3 13 Sudoeste 26 Oeste 0 -- -- 67
2019-06-07 01:00:00 16.7 13 Sudoeste 22 Sudoeste 0 -- -- 63
2019-06-07 00:00:00 17.2 8 Sudoeste 34 Sudoeste 0 -- -- 58
2019-06-06 23:00:00 18.2 20 Sudoeste 35 Sudoeste 0 -- -- 52
2019-06-06 22:00:00 19.5 21 Oeste 37 Oeste 0 -- -- 40
2019-06-06 21:00:00 21.8 22 Oeste 41 Oeste 0 -- -- 32
2019-06-06 20:00:00 23.9 30 Oeste 47 Oeste 0 -- -- 22
2019-06-06 19:00:00 24.8 32 Oeste 49 Oeste 0 -- -- 23
2019-06-06 18:00:00 26.1 33 Oeste 47 Oeste 0 -- -- 26
2019-06-06 17:00:00 27 26 Oeste 46 Oeste 0 -- -- 25
2019-06-06 16:00:00 26.7 23 Oeste 39 Oeste 0 -- -- 23
2019-06-06 15:00:00 26.3 18 Oeste 35 Oeste 0 -- -- 25
2019-06-06 14:00:00 25 8 Oeste 27 Oeste 0 -- -- 28
2019-06-06 13:00:00 23.7 10 Noroeste 20 Noroeste 0 -- -- 28
2019-06-06 12:00:00 22.1 3 Sudoeste 12 Noroeste 0 -- -- 33
2019-06-06 11:00:00 20.3 4 Nordeste 8 Nordeste 0 -- -- 37
2019-06-06 10:00:00 18.6 3 Norte 11 Oeste 0 -- -- 40
2019-06-06 09:00:00 16.9 4 Norte 6 Norte 0 -- -- 43
2019-06-06 08:00:00 15.3 3 Norte 5 Nordeste 0 -- -- 59
2019-06-06 07:00:00 14.6 0 Calma 4 Oeste 0 -- -- 61
2019-06-06 06:00:00 14.8 3 Nordeste 10 Nordeste 0 -- -- 62
2019-06-06 05:00:00 15.5 3 Norte 8 Sudoeste 0 -- -- 56
2019-06-06 04:00:00 16.7 4 Sudoeste 10 Sudoeste 0 -- -- 52
2019-06-06 03:00:00 17.1 6 Sudoeste 14 Sur 0 -- -- 52
2019-06-06 02:00:00 17.2 8 Sudoeste 15 Sudoeste 0 -- -- 53
2019-06-06 01:00:00 17.6 9 Sudoeste 18 Sur 0 -- -- 53
2019-06-06 00:00:00 18.3 8 Sudoeste 17 Sur 0 -- -- 52
2019-06-05 23:00:00 19.1 11 Sudoeste 27 Oeste 0 -- -- 51
2019-06-05 22:00:00 20.7 15 Oeste 33 Oeste 0 -- -- 46
2019-06-05 21:00:00 22.9 23 Oeste 43 Oeste 0 -- -- 39
2019-06-05 20:00:00 24.5 19 Oeste 29 Noroeste 0 -- -- 24
2019-06-05 19:00:00 24.6 19 Noroeste 38 Noroeste 0 -- -- 24
2019-06-05 18:00:00 25.5 14 Oeste 38 Oeste 0 -- -- 23
2019-06-05 17:00:00 24.7 12 Noroeste 35 Oeste 0 -- -- 25
2019-06-05 16:00:00 24.1 18 Noroeste 35 Noroeste 0 -- -- 26
2019-06-05 15:00:00 23 17 Oeste 33 Oeste 0 -- -- 31
2019-06-05 14:00:00 21.3 15 Noroeste 33 Oeste 0 -- -- 36
2019-06-05 13:00:00 20.1 15 Noroeste 35 Oeste 0 -- -- 37
2019-06-05 12:00:00 19 12 Noroeste 23 Oeste 0 -- -- 42
2019-06-05 11:00:00 17.7 10 Noroeste 27 Noroeste 0 -- -- 46
2019-06-05 10:00:00 16.5 11 Noroeste 23 Noroeste 0 -- -- 47
2019-06-05 09:00:00 15.6 13 Oeste 21 Oeste 0 -- -- 53
2019-06-05 08:00:00 14.6 10 Oeste 15 Oeste 0 -- -- 54
2019-06-05 07:00:00 15 9 Oeste 23 Noroeste 0 -- -- 51
2019-06-05 06:00:00 16.2 14 Noroeste 30 Noroeste 0 -- -- 47
2019-06-05 05:00:00 17.7 17 Noroeste 37 Oeste 0 -- -- 50
2019-06-05 04:00:00 18.9 19 Oeste 28 Oeste 0 -- -- 54
2019-06-05 03:00:00 19.4 18 Oeste 27 Oeste 0 -- -- 63
2019-06-05 02:00:00 20.3 19 Oeste 30 Oeste 0 -- -- 65
2019-06-05 01:00:00 20.3 10 Oeste 26 Sudoeste 0 -- -- 64
2019-06-05 00:00:00 20.7 19 Sudoeste 33 Sudoeste 0 -- -- 63
2019-06-04 23:00:00 20.9 21 Sudoeste 40 Oeste 0 -- -- 63
2019-06-04 22:00:00 22.7 24 Oeste 37 Oeste 0 -- -- 57
2019-06-04 21:00:00 25.4 26 Oeste 44 Oeste 0 -- -- 44
2019-06-04 20:00:00 27.6 31 Oeste 46 Oeste 0 -- -- 40
2019-06-04 19:00:00 29 31 Oeste 50 Oeste 0 -- -- 34
2019-06-04 18:00:00 30.1 33 Oeste 50 Oeste 0 -- -- 34
2019-06-04 17:00:00 31.2 25 Oeste 44 Oeste 0 -- -- 30
2019-06-04 16:00:00 31.2 32 Oeste 47 Oeste 0 -- -- 31
2019-06-04 15:00:00 30.6 27 Oeste 37 Oeste 0 -- -- 31
2019-06-04 14:00:00 29 20 Oeste 41 Oeste 0 -- -- 34
2019-06-04 13:00:00 28.2 22 Oeste 33 Oeste 0 -- -- 37
2019-06-04 12:00:00 27 22 Oeste 34 Oeste 0 -- -- 38
2019-06-04 11:00:00 25.5 15 Oeste 23 Oeste 0 -- -- 36
2019-06-04 10:00:00 23.4 6 Oeste 10 Oeste 0 -- -- 34
2019-06-04 09:00:00 21.5 4 Oeste 7 Oeste 0 -- -- 35
2019-06-04 08:00:00 20.2 0 Calma 4 Noroeste 0 -- -- 37
2019-06-04 07:00:00 20.1 2 Oeste 4 Noroeste 0 -- -- 37
2019-06-04 06:00:00 20.6 3 Norte 5 Norte 0 -- -- 36
2019-06-04 05:00:00 20.7 2 Noroeste 5 Noroeste 0 -- -- 36
2019-06-04 04:00:00 22.6 3 Noroeste 19 Sudeste 0 -- -- 32
2019-06-04 03:00:00 22.1 13 Sudeste 22 Sudeste 0 -- -- 38
2019-06-04 02:00:00 21.8 9 Sudoeste 17 Sudoeste 0 -- -- 41
2019-06-04 01:00:00 22.2 8 Sudoeste 12 Sudoeste 0 -- -- 44
2019-06-04 00:00:00 22.8 4 Oeste 15 Oeste 0 -- -- 41
2019-06-03 23:00:00 25.9 7 Sudoeste 22 Sudoeste 0 -- -- 35
2019-06-03 22:00:00 28.2 14 Sudoeste 33 Oeste 0 -- -- 30
2019-06-03 21:00:00 31.5 20 Oeste 31 Oeste 0 -- -- 25
2019-06-03 20:00:00 33.5 22 Oeste 36 Oeste 0 -- -- 21
2019-06-03 19:00:00 35 18 Oeste 32 Oeste 0 -- -- 17
2019-06-03 18:00:00 35.5 14 Oeste 31 Oeste 0 -- -- 16
2019-06-03 17:00:00 35.3 10 Oeste 29 Oeste 0 -- -- 15
2019-06-03 16:00:00 34.8 11 Sudoeste 26 Oeste 0 -- -- 15
2019-06-03 15:00:00 33.8 10 Noroeste 25 Oeste 0 -- -- 15
2019-06-03 14:00:00 32.6 6 Norte 18 Oeste 0 -- -- 17
2019-06-03 13:00:00 31.5 7 Sudeste 22 Este 0 -- -- 17
2019-06-03 12:00:00 30 10 Sudeste 20 Sudeste 0 -- -- 18
2019-06-03 11:00:00 27.9 8 Sur 14 Sudeste 0 -- -- 24
2019-06-03 10:00:00 25.2 0 Calma 5 Oeste 0 -- -- 27
2019-06-03 09:00:00 22.7 2 Sur 10 Sudeste 0 -- -- 30
2019-06-03 08:00:00 20.1 6 Sudeste 11 Sudeste 0 -- -- 34
2019-06-03 07:00:00 19.6 3 Sur 7 Sudeste 0 -- -- 36
2019-06-03 06:00:00 19.1 2 Sur 5 Norte 0 -- -- 38
2019-06-03 05:00:00 19.8 3 Sudoeste 27 Sudeste 0 -- -- 37
2019-06-03 04:00:00 20.5 19 Sudeste 31 Este 0 -- -- 35
2019-06-03 03:00:00 21 8 Sudeste 11 Sudeste 0 -- -- 48
2019-06-03 02:00:00 21.8 2 Oeste 12 Noroeste 0 -- -- 45
2019-06-03 01:00:00 23.6 7 Noroeste 13 Noroeste 0 -- -- 32
2019-06-03 00:00:00 24.7 0 Calma 13 Sur 0 -- -- 22
2019-06-02 23:00:00 25.6 7 Sur 23 Sudeste 0 -- -- 22
2019-06-02 22:00:00 27.1 13 Sudeste 25 Sudeste 0 -- -- 23
2019-06-02 21:00:00 29.3 13 Sudeste 24 Sudeste 0 -- -- 20
2019-06-02 20:00:00 31.5 11 Sur 24 Sur 0 -- -- 17
2019-06-02 19:00:00 32.3 14 Sudeste 26 Sudeste 0 -- -- 17
2019-06-02 18:00:00 32.5 11 Sudeste 26 Sudeste 0 -- -- 14
2019-06-02 17:00:00 32.3 14 Sudeste 29 Sudeste 0 -- -- 14
2019-06-02 16:00:00 31.8 15 Sudeste 28 Sur 0 -- -- 12
2019-06-02 15:00:00 30.9 14 Sudeste 29 Sur 0 -- -- 16
2019-06-02 14:00:00 29.9 15 Sudeste 31 Sudeste 0 -- -- 18
2019-06-02 13:00:00 28.6 19 Sudeste 33 Sudeste 0 -- -- 19
2019-06-02 12:00:00 27.4 18 Sudeste 33 Sudeste 0 -- -- 22
2019-06-02 11:00:00 25.8 18 Sudeste 28 Sudeste 0 -- -- 24
2019-06-02 10:00:00 24.6 11 Sudeste 20 Sudeste 0 -- -- 27
2019-06-02 09:00:00 22.9 6 Sur 19 Sudeste 0 -- -- 31
2019-06-02 08:00:00 20.8 10 Sudeste 17 Este 0 -- -- 33
2019-06-02 07:00:00 20.3 5 Sudeste 15 Sudeste 0 -- -- 34
2019-06-02 06:00:00 20.4 4 Este 17 Noroeste 0 -- -- 34
2019-06-02 05:00:00 20.5 5 Norte 31 Sudeste 0 -- -- 34
2019-06-02 04:00:00 21 21 Sudeste 38 Sudeste 0 -- -- 33
2019-06-02 03:00:00 20.7 19 Sudeste 39 Sudeste 0 -- -- 34
2019-06-02 02:00:00 21.2 22 Sudeste 40 Sudeste 0 -- -- 33
2019-06-02 01:00:00 21.5 24 Sudeste 39 Este 0 -- -- 32
2019-06-02 00:00:00 21.9 24 Sudeste 42 Sudeste 0 -- -- 30
2019-06-01 23:00:00 22.9 23 Sudeste 43 Sudeste 0 -- -- 27
2019-06-01 22:00:00 23.6 19 Sudeste 39 Sudeste 0 -- -- 26
2019-06-01 21:00:00 25.7 19 Sudeste 37 Sudeste 0 -- -- 24
2019-06-01 20:00:00 27.6 22 Sudeste 36 Sudeste 0 -- -- 23
2019-06-01 19:00:00 28.7 17 Sudeste 46 Sudeste 0 -- -- 21
2019-06-01 18:00:00 29.1 20 Sudeste 37 Sudeste 0 -- -- 20
2019-06-01 17:00:00 29.2 23 Sudeste 42 Sudeste 0 -- -- 20
2019-06-01 16:00:00 28.9 19 Sudeste 39 Sudeste 0 -- -- 22
2019-06-01 15:00:00 28.2 20 Sudeste 36 Sudeste 0 -- -- 23
2019-06-01 14:00:00 27.4 19 Sudeste 42 Sudeste 0 -- -- 24
2019-06-01 13:00:00 26.6 21 Sudeste 39 Sudeste 0 -- -- 25
2019-06-01 12:00:00 25.2 19 Sudeste 40 Sudeste 0 -- -- 29
2019-06-01 11:00:00 23.9 20 Sudeste 43 Sudeste 0 -- -- 32
2019-06-01 10:00:00 22.5 17 Sudeste 48 Sudeste 0 -- -- 35
2019-06-01 09:00:00 20.6 19 Sudeste 36 Sudeste 0 -- -- 39
2019-06-01 08:00:00 18.9 19 Sudeste 37 Este 0 -- -- 46
2019-06-01 07:00:00 18.3 21 Sudeste 39 Sudeste 0 -- -- 53
2019-06-01 06:00:00 19 23 Sudeste 41 Este 0 -- -- 51
2019-06-01 05:00:00 19.9 24 Sudeste 44 Sudeste 0 -- -- 46
2019-06-01 04:00:00 19.8 21 Sudeste 45 Sudeste 0 -- -- 48
2019-06-01 03:00:00 20.6 21 Sudeste 44 Sudeste 0 -- -- 45
2019-06-01 02:00:00 21.4 24 Sudeste 46 Sudeste 0 -- -- 43
2019-06-01 01:00:00 22.2 23 Sudeste 52 Sudeste 0 -- -- 40
2019-06-01 00:00:00 22.7 24 Sudeste 54 Sudeste 0 -- -- 40
2019-05-31 23:00:00 23.5 27 Sudeste 50 Sudeste 0 -- -- 35
2019-05-31 22:00:00 23.9 30 Sudeste 55 Sudeste 0 -- -- 33
2019-05-31 21:00:00 24.9 27 Sudeste 54 Sudeste 0 -- -- 32
2019-05-31 20:00:00 26.3 29 Sudeste 54 Sur 0 -- -- 28
2019-05-31 19:00:00 27.4 26 Sudeste 53 Sudeste 0 -- -- 27
2019-05-31 18:00:00 28.1 27 Sudeste 46 Sudeste 0 -- -- 26
2019-05-31 17:00:00 28.4 25 Sudeste 46 Sudeste 0 -- -- 25
2019-05-31 16:00:00 28.7 22 Sudeste 46 Sudeste 0 -- -- 26
2019-05-31 15:00:00 28.2 21 Sudeste 39 Este 0 -- -- 26
2019-05-31 14:00:00 27 21 Sudeste 41 Sudeste 0 -- -- 28
2019-05-31 13:00:00 26.1 22 Sudeste 45 Sudeste 0 -- -- 31
2019-05-31 12:00:00 24.8 24 Sudeste 43 Sur 0 -- -- 34
2019-05-31 11:00:00 23.6 18 Sudeste 35 Sudeste 0 -- -- 36
2019-05-31 10:00:00 21.7 17 Sudeste 37 Sudeste 0 -- -- 42
2019-05-31 09:00:00 19.9 17 Este 41 Este 0 -- -- 47
2019-05-31 08:00:00 18.1 21 Sudeste 38 Este 0 -- -- 53
2019-05-31 07:00:00 17.3 19 Este 35 Este 0 -- -- 56
2019-05-31 06:00:00 17.8 19 Este 37 Sudeste 0 -- -- 54
2019-05-31 05:00:00 18.1 19 Sudeste 40 Sudeste 0 -- -- 55
2019-05-31 04:00:00 19 16 Sudeste 43 Sudeste 0 -- -- 52
2019-05-31 03:00:00 19.5 21 Sudeste 47 Sudeste 0 -- -- 48
2019-05-31 02:00:00 20 25 Sudeste 51 Sudeste 0 -- -- 43
2019-05-31 01:00:00 20.3 28 Sudeste 51 Sudeste 0 -- -- 40
2019-05-31 00:00:00 20.8 26 Sudeste 57 Sur 0 -- -- 33
2019-05-30 23:00:00 20.8 30 Sudeste 59 Sudeste 0 -- -- 34
2019-05-30 22:00:00 21.3 27 Sudeste 50 Sudeste 0 -- -- 33
2019-05-30 21:00:00 22.2 29 Sudeste 58 Sudeste 0 -- -- 39
2019-05-30 20:00:00 23.7 25 Sudeste 50 Sur 0 -- -- 38
2019-05-30 19:00:00 25 24 Sudeste 48 Sudeste 0 -- -- 36
2019-05-30 18:00:00 25.6 25 Sudeste 47 Sudeste 0 -- -- 35
2019-05-30 17:00:00 25.7 24 Sur 47 Sudeste 0 -- -- 35
2019-05-30 16:00:00 25.9 22 Sudeste 41 Sudeste 0 -- -- 34
2019-05-30 15:00:00 25.6 20 Sur 42 Sudeste 0 -- -- 35
2019-05-30 14:00:00 24.7 23 Sudeste 50 Sudeste 0 -- -- 37
2019-05-30 13:00:00 23.6 26 Sudeste 48 Sudeste 0 -- -- 40
2019-05-30 12:00:00 22.5 28 Sudeste 50 Sudeste 0 -- -- 47
2019-05-30 11:00:00 21.9 25 Sudeste 50 Sudeste 0 -- -- 46
2019-05-30 10:00:00 20.8 25 Sudeste 45 Sudeste 0 -- -- 49
2019-05-30 09:00:00 19.3 23 Sudeste 49 Sudeste 0 -- -- 54
2019-05-30 08:00:00 18.1 25 Sudeste 49 Sudeste 0 -- -- 56
2019-05-30 07:00:00 18 20 Sudeste 44 Sudeste 0 -- -- 54
2019-05-30 06:00:00 17.9 25 Sudeste 48 Este 0 -- -- 54
2019-05-30 05:00:00 18.1 24 Sudeste 45 Sudeste 0 -- -- 54
2019-05-30 04:00:00 18 23 Sudeste 41 Este 0 -- -- 61
2019-05-30 03:00:00 18.2 26 Sudeste 41 Sudeste 0 -- -- 62
2019-05-30 02:00:00 18.5 23 Sudeste 42 Sudeste 0 -- -- 60
2019-05-30 01:00:00 19.2 22 Sudeste 39 Sudeste 0 -- -- 55
2019-05-30 00:00:00 20.2 26 Sudeste 38 Sudeste 0 -- -- 48
2019-05-29 23:00:00 22.1 22 Sudeste 33 Sudeste 0 -- -- 44
2019-05-29 22:00:00 24.2 19 Sudeste 30 Sudeste 0 -- -- 41
2019-05-29 21:00:00 27.6 15 Sudeste 24 Sudeste 0 -- -- 34
2019-05-29 20:00:00 29.8 13 Sudeste 26 Sur 0 -- -- 29
2019-05-29 19:00:00 30.8 11 Sudeste 22 Sudeste 0 -- -- 27
2019-05-29 18:00:00 30.7 10 Sudeste 24 Sudeste 0 -- -- 27
2019-05-29 17:00:00 29.7 12 Sudeste 27 Sudeste 0 -- -- 28
2019-05-29 16:00:00 29.4 14 Sudeste 32 Sudeste 0 -- -- 29
2019-05-29 15:00:00 28.5 15 Sur 33 Sudeste 0 -- -- 30
2019-05-29 14:00:00 27.8 14 Sudeste 38 Sudeste 0 -- -- 31
2019-05-29 13:00:00 26.6 20 Sudeste 43 Sudeste 0 -- -- 35
2019-05-29 12:00:00 25.6 21 Sudeste 42 Sudeste 0 -- -- 38
2019-05-29 11:00:00 24.5 23 Sudeste 39 Sudeste 0 -- -- 43
2019-05-29 10:00:00 23.5 18 Sudeste 35 Sudeste 0 -- -- 49
2019-05-29 09:00:00 22.1 11 Este 34 Este 0 -- -- 58
2019-05-29 08:00:00 20.1 15 Sudeste 32 Sudeste 0 -- -- 65
2019-05-29 07:00:00 19.6 14 Este 28 Sudeste 0 -- -- 63
2019-05-29 06:00:00 20.1 14 Este 26 Sudeste 0 -- -- 55
2019-05-29 05:00:00 22 11 Este 20 Sudeste 0 -- -- 45
2019-05-29 04:00:00 23.2 8 Este 17 Sudeste 0 -- -- 39
2019-05-29 03:00:00 22.6 13 Sudeste 23 Este 0 -- -- 41
2019-05-29 02:00:00 21.6 8 Sur 13 Sur 0 -- -- 53
2019-05-29 01:00:00 22 6 Noroeste 12 Noroeste 0 -- -- 53
2019-05-29 00:00:00 25 5 Sudoeste 12 Oeste 0 -- -- 32
2019-05-28 23:00:00 25.8 11 Oeste 22 Oeste 0 -- -- 33
2019-05-28 22:00:00 28.4 10 Oeste 25 Oeste 0 -- -- 30
2019-05-28 21:00:00 31.6 19 Oeste 35 Oeste 0 -- -- 26
2019-05-28 20:00:00 34.5 14 Oeste 23 Oeste 0 -- -- 23
2019-05-28 19:00:00 34.7 12 Sudoeste 26 Oeste 0 -- -- 22
2019-05-28 18:00:00 34.4 7 Noroeste 34 Oeste 0 -- -- 22
2019-05-28 17:00:00 34.4 15 Oeste 26 Oeste 0 -- -- 22
2019-05-28 16:00:00 34.1 15 Oeste 28 Oeste 0 -- -- 22
2019-05-28 15:00:00 32.1 10 Sur 24 Oeste 0 -- -- 25
2019-05-28 14:00:00 32.1 13 Oeste 26 Oeste 0 -- -- 25
2019-05-28 13:00:00 30.5 8 Oeste 23 Oeste 0 -- -- 31
2019-05-28 12:00:00 28.3 3 Noroeste 15 Noroeste 0 -- -- 37
2019-05-28 11:00:00 26.4 4 Noroeste 10 Norte 0 -- -- 39
2019-05-28 10:00:00 25.2 3 Nordeste 9 Norte 0 -- -- 39
2019-05-28 09:00:00 23.7 4 Norte 7 Norte 0 -- -- 42
2019-05-28 08:00:00 21.8 0 Calma 3 Oeste 0 -- -- 45
2019-05-28 07:00:00 22.2 3 Nordeste 6 Nordeste 0 -- -- 44
2019-05-28 06:00:00 23.1 2 Sudeste 5 Sur 0 -- -- 41
2019-05-28 05:00:00 23.4 4 Sur 8 Sur 0 -- -- 40
2019-05-28 04:00:00 23.7 2 Sur 8 Sur 0 -- -- 37
2019-05-28 03:00:00 24.3 3 Sur 9 Sur 0 -- -- 35
2019-05-28 02:00:00 24.6 2 Sudoeste 17 Sudoeste 0 -- -- 34
2019-05-28 01:00:00 25 10 Sudoeste 19 Sudoeste 0 -- -- 34
2019-05-28 00:00:00 25.3 10 Sudoeste 20 Sudoeste 0 -- -- 37
2019-05-27 23:00:00 25.6 9 Oeste 20 Oeste 0 -- -- 41
2019-05-27 22:00:00 27.9 17 Oeste 37 Oeste 0 -- -- 31
2019-05-27 21:00:00 30.7 26 Oeste 41 Oeste 0 -- -- 28
2019-05-27 20:00:00 33.5 19 Oeste 30 Oeste 0 -- -- 20
2019-05-27 19:00:00 34 12 Noroeste 29 Oeste 0 -- -- 20
2019-05-27 18:00:00 34.1 7 Oeste 24 Oeste 0 -- -- 19
2019-05-27 17:00:00 33.3 7 Oeste 32 Oeste 0 -- -- 19
2019-05-27 16:00:00 32.8 13 Oeste 23 Noroeste 0 -- -- 20
2019-05-27 15:00:00 31.3 7 Norte 16 Noroeste 0 -- -- 21
2019-05-27 14:00:00 30.2 7 Noroeste 15 Noroeste 0 -- -- 25
2019-05-27 13:00:00 29.1 6 Noroeste 17 Norte 0 -- -- 29
2019-05-27 12:00:00 27.2 5 Norte 12 Norte 0 -- -- 32
2019-05-27 11:00:00 25.7 6 Nordeste 12 Nordeste 0 -- -- 37
2019-05-27 10:00:00 24.8 3 Este 15 Sudeste 0 -- -- 38
2019-05-27 09:00:00 22.4 8 Sudeste 17 Sudeste 0 -- -- 45
2019-05-27 08:00:00 20.5 8 Este 16 Sudeste 0 -- -- 49
2019-05-27 07:00:00 18.9 5 Sudeste 9 Sudeste 0 -- -- 54
2019-05-27 06:00:00 18.1 0 Calma 4 Norte 0 -- -- 55
2019-05-27 05:00:00 18.8 0 Calma 4 Norte 0 -- -- 53
2019-05-27 04:00:00 20.8 4 Norte 9 Este 0 -- -- 48
2019-05-27 03:00:00 20.8 4 Sudeste 10 Sur 0 -- -- 47
2019-05-27 02:00:00 20.9 5 Sudoeste 14 Sudoeste 0 -- -- 47
2019-05-27 01:00:00 21.2 9 Sudoeste 18 Oeste 0 -- -- 48
2019-05-27 00:00:00 22.3 9 Oeste 17 Sudoeste 0 -- -- 45
2019-05-26 23:00:00 24 11 Sudoeste 30 Oeste 0 -- -- 42
2019-05-26 22:00:00 26.5 17 Oeste 27 Oeste 0 -- -- 40
2019-05-26 21:00:00 30 8 Norte 23 Noroeste 0 -- -- 21
2019-05-26 20:00:00 31 9 Norte 19 Nordeste 0 -- -- 21
2019-05-26 19:00:00 30.8 12 Noroeste 26 Nordeste 0 -- -- 23
2019-05-26 18:00:00 30.6 8 Nordeste 24 Oeste 0 -- -- 25
2019-05-26 17:00:00 30.1 8 Norte 24 Nordeste 0 -- -- 25
2019-05-26 16:00:00 29.4 13 Noroeste 24 Noroeste 0 -- -- 26
2019-05-26 15:00:00 28.2 8 Nordeste 19 Nordeste 0 -- -- 28
2019-05-26 14:00:00 27.5 6 Este 17 Nordeste 0 -- -- 29
2019-05-26 13:00:00 26.5 6 Nordeste 21 Norte 0 -- -- 31
2019-05-26 12:00:00 25.3 4 Nordeste 12 Sur 0 -- -- 36
2019-05-26 11:00:00 23.1 4 Norte 11 Noroeste 0 -- -- 43
2019-05-26 10:00:00 21.4 5 Noroeste 11 Noroeste 0 -- -- 50
2019-05-26 09:00:00 20.2 2 Sudeste 12 Sudeste 0 -- -- 49
2019-05-26 08:00:00 17.8 6 Sudeste 12 Sudeste 0 -- -- 56
2019-05-26 07:00:00 17.4 4 Sudeste 10 Este 0 -- -- 58
2019-05-26 06:00:00 17.8 3 Nordeste 16 Este 0 -- -- 57
2019-05-26 05:00:00 18.2 8 Este 17 Sudeste 0 -- -- 56
2019-05-26 04:00:00 18.7 9 Este 14 Este 0 -- -- 55
2019-05-26 03:00:00 19.8 6 Sudeste 12 Sudeste 0 -- -- 53
2019-05-26 02:00:00 20.3 8 Sudeste 11 Sudeste 0 -- -- 47
2019-05-26 01:00:00 20.4 2 Sur 6 Noroeste 0 -- -- 46
2019-05-26 00:00:00 21.8 3 Oeste 26 Sudeste 0 -- -- 42
2019-05-25 23:00:00 22.7 13 Sudeste 22 Sudeste 0 -- -- 41
2019-05-25 22:00:00 26.5 2 Este 12 Nordeste 0 -- -- 28
2019-05-25 21:00:00 27.8 5 Nordeste 12 Nordeste 0 -- -- 26
2019-05-25 20:00:00 28.3 6 Este 20 Nordeste 0 -- -- 25
2019-05-25 19:00:00 28.3 9 Nordeste 24 Este 0 -- -- 24
2019-05-25 18:00:00 28 8 Nordeste 24 Nordeste 0 -- -- 24
2019-05-25 17:00:00 27.8 10 Norte 30 Nordeste 0 -- -- 26
2019-05-25 16:00:00 26.8 10 Nordeste 33 Nordeste 0 -- -- 28
2019-05-25 15:00:00 26.1 9 Nordeste 28 Nordeste 0 -- -- 31
2019-05-25 14:00:00 25.1 11 Nordeste 24 Nordeste 0 -- -- 34
2019-05-25 13:00:00 24.7 13 Nordeste 26 Nordeste 0 -- -- 33
2019-05-25 12:00:00 23.5 9 Nordeste 25 Norte 0 -- -- 43
2019-05-25 11:00:00 22 10 Nordeste 22 Nordeste 0 -- -- 49
2019-05-25 10:00:00 20.9 6 Nordeste 18 Sudeste 0 -- -- 55
2019-05-25 09:00:00 19.2 9 Sudeste 16 Sudeste 0 -- -- 62
2019-05-25 08:00:00 17.5 6 Sudeste 19 Sudeste 0 -- -- 68
2019-05-25 07:00:00 17.3 12 Sudeste 19 Este 0 -- -- 70
2019-05-25 06:00:00 17.8 11 Sudeste 21 Sudeste 0 -- -- 69
2019-05-25 05:00:00 18.3 13 Sudeste 26 Sudeste 0 -- -- 69
2019-05-25 04:00:00 18.9 12 Este 27 Este 0 -- -- 66
2019-05-25 03:00:00 19.7 16 Sudeste 23 Sudeste 0 -- -- 59
2019-05-25 02:00:00 20.1 10 Sudeste 17 Sudeste 0 -- -- 47
2019-05-25 01:00:00 21.2 4 Nordeste 7 Sudoeste 0 -- -- 41
2019-05-25 00:00:00 21.5 5 Sudoeste 17 Sudoeste 0 -- -- 41
2019-05-24 23:00:00 22.2 11 Sudoeste 17 Sudoeste 0 -- -- 44
2019-05-24 22:00:00 23.4 12 Sudoeste 34 Oeste 0 -- -- 42
2019-05-24 21:00:00 26 19 Oeste 38 Oeste 0 -- -- 35
2019-05-24 20:00:00 28.8 27 Oeste 33 Sudoeste 0 -- -- 30
2019-05-24 19:00:00 30 15 Oeste 31 Oeste 0 -- -- 25
2019-05-24 18:00:00 30.1 17 Noroeste 31 Noroeste 0 -- -- 25
2019-05-24 17:00:00 28.8 14 Noroeste 34 Noroeste 0 -- -- 28
2019-05-24 16:00:00 28 13 Noroeste 40 Sudoeste 0 -- -- 27
2019-05-24 15:00:00 27.7 21 Oeste 34 Oeste 0 -- -- 29
2019-05-24 14:00:00 26.3 18 Oeste 30 Sudoeste 0 -- -- 33
2019-05-24 13:00:00 24.9 15 Oeste 27 Oeste 0 -- -- 39
2019-05-24 12:00:00 23.1 13 Noroeste 22 Oeste 0 -- -- 47
2019-05-24 11:00:00 21.5 12 Oeste 19 Noroeste 0 -- -- 50
2019-05-24 10:00:00 20.6 7 Oeste 13 Oeste 0 -- -- 50
2019-05-24 09:00:00 19.8 5 Oeste 6 Oeste 0 -- -- 50
2019-05-24 08:00:00 19.5 3 Sur 5 Oeste 0 -- -- 49
2019-05-24 07:00:00 19.4 3 Sur 6 Sur 0 -- -- 48
2019-05-24 06:00:00 19.9 4 Sudoeste 10 Sudoeste 0 -- -- 47
2019-05-24 05:00:00 20.6 4 Sur 11 Sudoeste 0 -- -- 45
2019-05-24 04:00:00 21 3 Sur 9 Sudoeste 0 -- -- 44
2019-05-24 03:00:00 21.7 5 Sudoeste 10 Sur 0 -- -- 43
2019-05-24 02:00:00 22.3 6 Sudoeste 18 Sudoeste 0 -- -- 43
2019-05-24 01:00:00 23 10 Sudoeste 27 Oeste 0 -- -- 41
2019-05-24 00:00:00 24 14 Sudoeste 22 Sudoeste 0 -- -- 40
2019-05-23 23:00:00 25.3 14 Sudoeste 28 Oeste 0 -- -- 38
2019-05-23 22:00:00 27 15 Oeste 28 Sudoeste 0 -- -- 35
2019-05-23 21:00:00 28.4 12 Oeste 28 Oeste 0 -- -- 27
2019-05-23 20:00:00 30.5 19 Oeste 29 Oeste 0 -- -- 25
2019-05-23 19:00:00 31.3 20 Noroeste 29 Oeste 0 -- -- 24
2019-05-23 18:00:00 32 9 Oeste 28 Oeste 0 -- -- 22
2019-05-23 17:00:00 31.8 11 Noroeste 31 Noroeste 0 -- -- 22
2019-05-23 16:00:00 31.5 9 Oeste 21 Sudeste 0 -- -- 21
2019-05-23 15:00:00 30.6 5 Sudeste 12 Nordeste 0 -- -- 22
2019-05-23 14:00:00 29.8 2 Sur 18 Sudeste 0 -- -- 22
2019-05-23 13:00:00 28.9 8 Sur 15 Sur 0 -- -- 24
2019-05-23 12:00:00 27.4 6 Sur 15 Sudoeste 0 -- -- 27
2019-05-23 11:00:00 24.9 5 Noroeste 13 Norte 0 -- -- 37
2019-05-23 10:00:00 22.8 5 Norte 9 Nordeste 0 -- -- 41
2019-05-23 09:00:00 21.1 0 Calma 5 Norte 0 -- -- 43
2019-05-23 08:00:00 18.1 0 Calma 6 Oeste 0 -- -- 49
2019-05-23 07:00:00 17.4 0 Calma 13 Sudeste 0 -- -- 49
2019-05-23 06:00:00 20 12 Sudeste 15 Sudeste 0 -- -- 41
2019-05-23 05:00:00 20.2 9 Sudeste 12 Sudeste 0 -- -- 41
2019-05-23 04:00:00 20.8 8 Sudeste 12 Sudeste 0 -- -- 39
2019-05-23 03:00:00 21.4 7 Sudeste 11 Sudeste 0 -- -- 45
2019-05-23 02:00:00 21.6 6 Sur 12 Sur 0 -- -- 50
2019-05-23 01:00:00 22.2 6 Sudoeste 11 Sur 0 -- -- 50
2019-05-23 00:00:00 23.2 7 Sur 14 Sur 0 -- -- 46
2019-05-22 23:00:00 24.5 8 Sudoeste 14 Sudoeste 0 -- -- 40
2019-05-22 22:00:00 25.7 6 Sudoeste 17 Sudeste 0 -- -- 31
2019-05-22 21:00:00 27.3 10 Sudeste 26 Sudeste 0 -- -- 28
2019-05-22 20:00:00 28.9 14 Sudeste 28 Sudeste 0 -- -- 24
2019-05-22 19:00:00 29.7 12 Sudeste 25 Sudeste 0 -- -- 23
2019-05-22 18:00:00 29.9 9 Sur 23 Sur 0 -- -- 19
2019-05-22 17:00:00 29.9 9 Sur 28 Sur 0 -- -- 20
2019-05-22 16:00:00 29.2 10 Sudeste 25 Sudeste 0 -- -- 25
2019-05-22 15:00:00 28.7 8 Sur 21 Sudeste 0 -- -- 28
2019-05-22 14:00:00 27.5 7 Este 19 Sudeste 0 -- -- 31
2019-05-22 13:00:00 26.4 6 Sudeste 22 Este 0 -- -- 33
2019-05-22 12:00:00 25.2 7 Sudeste 17 Sur 0 -- -- 36
2019-05-22 11:00:00 23.6 11 Sudeste 22 Sudeste 0 -- -- 40
2019-05-22 10:00:00 21.8 12 Sudeste 22 Sudeste 0 -- -- 48
2019-05-22 09:00:00 19.8 8 Sudeste 16 Este 0 -- -- 55
2019-05-22 08:00:00 17.1 0 Calma 17 Este 0 -- -- 60
2019-05-22 07:00:00 17.6 11 Sudeste 17 Sudeste 0 -- -- 61
2019-05-22 06:00:00 17.9 7 Sudeste 13 Sudeste 0 -- -- 58
2019-05-22 05:00:00 17.5 6 Sudeste 11 Sudeste 0 -- -- 58
2019-05-22 04:00:00 17.8 8 Sudeste 18 Sudeste 0 -- -- 55
2019-05-22 03:00:00 17.9 5 Este 15 Este 0 -- -- 53
2019-05-22 02:00:00 17.6 0 Calma 5 Noroeste 0 -- -- 59
2019-05-22 01:00:00 18.6 3 Oeste 12 Oeste 0 -- -- 52
2019-05-22 00:00:00 19.6 6 Sudoeste 11 Sudoeste 0 -- -- 50